createdAt,value
2023-01-20T00:01:37.890Z,2.07
2023-01-20T00:04:04.649Z,2.12
2023-01-20T00:06:31.369Z,2.05
2023-01-20T00:09:00.676Z,2.05
2023-01-20T00:11:27.768Z,2.12
2023-01-20T00:13:59.538Z,2.09
2023-01-20T00:16:27.237Z,2.00
2023-01-20T00:18:54.434Z,1.98
2023-01-20T00:21:21.295Z,1.98
2023-01-20T00:23:47.985Z,1.99
2023-01-20T00:26:17.692Z,1.91
2023-01-20T00:28:44.796Z,1.87
2023-01-20T00:31:12.445Z,1.86
2023-01-20T00:33:39.372Z,1.82
2023-01-20T00:36:06.514Z,1.79
2023-01-20T00:38:33.024Z,1.79
2023-01-20T00:40:59.447Z,1.76
2023-01-20T00:43:25.910Z,1.73
2023-01-20T00:45:52.438Z,1.75
2023-01-20T00:48:18.855Z,1.77
2023-01-20T00:50:45.263Z,1.80
2023-01-20T00:53:11.671Z,1.84
2023-01-20T00:55:38.111Z,1.87
2023-01-20T00:58:04.565Z,1.83
2023-01-20T01:00:31.424Z,1.77
2023-01-20T01:02:57.905Z,1.83
2023-01-20T01:05:24.425Z,1.79
2023-01-20T01:07:50.814Z,1.82
2023-01-20T01:10:17.447Z,1.79
2023-01-20T01:12:43.852Z,1.77
2023-01-20T01:15:10.984Z,1.84
2023-01-20T01:17:37.532Z,1.82
2023-01-20T01:20:04.368Z,1.79
2023-01-20T01:22:32.791Z,1.77
2023-01-20T01:24:59.193Z,1.78
2023-01-20T01:27:28.026Z,1.78
2023-01-20T01:29:54.502Z,1.83
2023-01-20T01:32:21.301Z,1.78
2023-01-20T01:34:47.798Z,1.70
2023-01-20T01:37:14.285Z,1.70
2023-01-20T01:39:40.693Z,1.73
2023-01-20T01:42:33.383Z,1.80
2023-01-20T01:45:21.943Z,1.74
2023-01-20T01:47:54.315Z,1.73
2023-01-20T01:50:26.088Z,1.66
2023-01-20T01:52:55.505Z,1.57
2023-01-20T01:55:27.107Z,1.44
2023-01-20T01:57:54.009Z,1.38
2023-01-20T02:00:20.748Z,1.37
2023-01-20T02:02:47.385Z,1.46
2023-01-20T02:05:15.468Z,1.51
2023-01-20T02:07:45.613Z,1.53
2023-01-20T02:10:13.056Z,1.63
2023-01-20T02:12:41.190Z,1.56
2023-01-20T02:15:08.387Z,1.55
2023-01-20T02:18:08.498Z,1.50
2023-01-20T02:20:57.842Z,1.48
2023-01-20T02:23:59.314Z,1.49
2023-01-20T02:26:43.682Z,1.41
2023-01-20T02:29:31.985Z,1.50
2023-01-20T02:32:17.134Z,1.51
2023-01-20T02:34:53.426Z,1.37
2023-01-20T02:37:25.377Z,1.42
2023-01-20T02:40:29.146Z,1.43
2023-01-20T02:43:08.907Z,1.52
2023-01-20T02:45:38.075Z,1.45
2023-01-20T02:48:23.056Z,1.20
2023-01-20T02:50:49.448Z,1.10
2023-01-20T02:53:17.690Z,1.08
2023-01-20T02:55:49.426Z,1.10
2023-01-20T02:58:30.389Z,1.12
2023-01-20T03:01:02.362Z,1.11
2023-01-20T03:03:35.723Z,1.09
2023-01-20T03:06:05.431Z,1.14
2023-01-20T03:08:33.030Z,1.20
2023-01-20T03:11:04.673Z,1.27
2023-01-20T03:13:34.150Z,1.30
2023-01-20T03:16:07.489Z,1.25
2023-01-20T03:18:35.259Z,1.21
2023-01-20T03:21:04.073Z,1.18
2023-01-20T03:23:34.072Z,1.15
2023-01-20T03:26:03.081Z,1.02
2023-01-20T03:28:29.531Z,0.92
2023-01-20T03:30:57.923Z,0.90
2023-01-20T03:33:25.057Z,0.93
2023-01-20T03:35:52.466Z,0.89
2023-01-20T03:38:18.957Z,0.97
2023-01-20T03:41:01.672Z,0.86
2023-01-20T03:43:45.518Z,0.66
2023-01-20T03:46:20.944Z,0.56
2023-01-20T03:48:58.134Z,0.53
2023-01-20T03:51:39.310Z,0.50
2023-01-20T03:54:11.210Z,0.51
2023-01-20T03:56:51.137Z,0.64
2023-01-20T03:59:20.239Z,0.74
2023-01-20T04:01:47.271Z,0.70
2023-01-20T04:04:17.339Z,0.68
2023-01-20T04:06:45.399Z,0.71
2023-01-20T04:09:19.418Z,0.64
2023-01-20T04:11:46.052Z,0.56
2023-01-20T04:14:12.537Z,0.62
2023-01-20T04:16:39.083Z,0.52
2023-01-20T04:19:05.496Z,0.45
2023-01-20T04:21:45.438Z,0.44
2023-01-20T04:24:28.750Z,0.48
2023-01-20T04:26:55.219Z,0.51
2023-01-20T04:29:21.631Z,0.62
2023-01-20T04:31:48.064Z,0.65
2023-01-20T04:34:17.891Z,0.68
2023-01-20T04:36:44.333Z,0.76
2023-01-20T04:39:10.834Z,0.79
2023-01-20T04:41:37.311Z,0.76
2023-01-20T04:44:03.762Z,0.81
2023-01-20T04:46:30.235Z,0.82
2023-01-20T04:48:56.705Z,0.82
2023-01-20T04:51:23.269Z,0.75
2023-01-20T04:53:49.722Z,0.70
2023-01-20T04:56:16.313Z,0.61
2023-01-20T04:58:43.388Z,0.62
2023-01-20T05:01:10.013Z,0.57
2023-01-20T05:03:36.648Z,0.50
2023-01-20T05:06:03.272Z,0.56
2023-01-20T05:08:29.670Z,0.60
2023-01-20T05:10:56.135Z,0.51
2023-01-20T05:13:22.581Z,0.40
2023-01-20T05:15:49.077Z,0.33
2023-01-20T05:18:15.578Z,0.38
2023-01-20T05:20:44.984Z,0.16
2023-01-20T05:23:11.548Z,-0.02
2023-01-20T05:25:38.007Z,-0.09
2023-01-20T05:28:04.575Z,0.02
2023-01-20T05:30:31.069Z,0.08
2023-01-20T05:32:57.540Z,0.05
2023-01-20T05:35:24.062Z,-0.12
2023-01-20T05:37:54.789Z,-0.21
2023-01-20T05:40:21.926Z,-0.10
2023-01-20T05:42:48.336Z,-0.08
2023-01-20T05:45:14.914Z,-0.05
2023-01-20T05:47:41.445Z,0.03
2023-01-20T05:50:08.364Z,0.06
2023-01-20T05:52:34.802Z,-0.12
2023-01-20T05:55:01.205Z,-0.11
2023-01-20T05:57:27.635Z,-0.08
2023-01-20T05:59:55.628Z,-0.04
2023-01-20T06:02:22.206Z,0.02
2023-01-20T06:04:49.049Z,0.00
2023-01-20T06:07:16.037Z,0.10
2023-01-20T06:09:42.473Z,0.07
2023-01-20T06:12:08.999Z,-0.08
2023-01-20T06:14:35.401Z,-0.09
2023-01-20T06:17:01.859Z,0.02
2023-01-20T06:19:28.291Z,0.06
2023-01-20T06:21:54.686Z,0.06
2023-01-20T06:24:21.191Z,-0.13
2023-01-20T06:26:50.498Z,-0.31
2023-01-20T06:29:16.911Z,-0.36
2023-01-20T06:31:44.737Z,-0.20
2023-01-20T06:34:12.092Z,-0.24
2023-01-20T06:36:39.071Z,-0.16
2023-01-20T06:39:05.621Z,-0.10
2023-01-20T06:41:32.514Z,0.08
2023-01-20T06:43:58.922Z,0.19
2023-01-20T06:46:25.516Z,0.25
2023-01-20T06:48:52.105Z,0.34
2023-01-20T06:51:20.427Z,0.37
2023-01-20T06:53:47.538Z,0.45
2023-01-20T06:56:15.528Z,0.40
2023-01-20T06:58:42.439Z,0.36
2023-01-20T07:01:14.387Z,0.35
2023-01-20T07:03:44.433Z,0.39
2023-01-20T07:06:20.081Z,0.42
2023-01-20T07:08:46.888Z,0.44
2023-01-20T07:11:13.462Z,0.48
2023-01-20T07:13:40.136Z,0.49
2023-01-20T07:16:09.494Z,0.43
2023-01-20T07:18:37.704Z,0.32
2023-01-20T07:21:04.905Z,0.32
2023-01-20T07:23:33.463Z,0.32
2023-01-20T07:26:02.008Z,0.32
2023-01-20T07:28:30.025Z,0.30
2023-01-20T07:30:56.478Z,0.29
2023-01-20T07:33:22.967Z,0.33
2023-01-20T07:35:53.579Z,0.36
2023-01-20T07:38:20.276Z,0.34
2023-01-20T07:40:46.736Z,0.30
2023-01-20T07:43:13.116Z,0.20
2023-01-20T07:45:39.549Z,0.10
2023-01-20T07:48:07.786Z,0.07
2023-01-20T07:50:35.291Z,0.16
2023-01-20T07:53:01.935Z,0.07
2023-01-20T07:55:28.835Z,-0.19
2023-01-20T07:57:56.189Z,-0.38
2023-01-20T08:00:22.701Z,-0.56
2023-01-20T08:02:49.117Z,-0.50
2023-01-20T08:05:25.155Z,-0.36
2023-01-20T08:07:53.126Z,-0.34
2023-01-20T08:10:23.214Z,-0.37
2023-01-20T08:12:53.596Z,-0.36
2023-01-20T08:15:20.124Z,-0.43
2023-01-20T08:17:46.529Z,-0.42
2023-01-20T08:20:13.245Z,-0.42
2023-01-20T08:22:39.635Z,-0.36
2023-01-20T08:25:06.531Z,-0.40
2023-01-20T08:27:32.936Z,-0.34
2023-01-20T08:29:59.384Z,-0.39
2023-01-20T08:32:25.855Z,-0.31
2023-01-20T08:34:52.255Z,-0.18
2023-01-20T08:37:18.751Z,-0.18
2023-01-20T08:39:45.175Z,-0.19
2023-01-20T08:42:11.601Z,-0.07
2023-01-20T08:44:38.061Z,0.03
2023-01-20T08:47:04.546Z,-0.06
2023-01-20T08:49:31.328Z,-0.07
2023-01-20T08:51:58.265Z,0.14
2023-01-20T08:54:24.746Z,0.27
2023-01-20T08:56:53.888Z,0.13
2023-01-20T08:59:21.013Z,0.22
2023-01-20T09:01:47.519Z,0.25
2023-01-20T09:04:13.911Z,0.25
2023-01-20T09:06:44.549Z,0.25
2023-01-20T09:09:11.899Z,0.18
2023-01-20T09:11:39.989Z,0.00
2023-01-20T09:14:06.649Z,-0.01
2023-01-20T09:16:33.163Z,-0.01
2023-01-20T09:18:59.619Z,0.10
2023-01-20T09:21:26.033Z,0.38
2023-01-20T09:23:52.538Z,0.44
2023-01-20T09:26:34.410Z,0.51
2023-01-20T09:29:09.214Z,0.54
2023-01-20T09:32:00.294Z,0.60
2023-01-20T09:34:29.427Z,0.54
2023-01-20T09:36:58.624Z,0.48
2023-01-20T09:39:43.683Z,0.60
2023-01-20T09:42:50.266Z,0.76
2023-01-20T09:45:35.251Z,0.78
2023-01-20T09:48:59.615Z,0.87
2023-01-20T09:51:59.554Z,0.85
2023-01-20T09:54:33.568Z,0.79
2023-01-20T09:57:01.713Z,0.97
2023-01-20T09:59:36.819Z,1.11
2023-01-20T10:02:12.047Z,1.12
2023-01-20T10:04:55.015Z,1.16
2023-01-20T10:07:46.200Z,1.42
2023-01-20T10:10:31.850Z,1.29
2023-01-20T10:13:14.237Z,1.28
2023-01-20T10:15:46.118Z,1.24
2023-01-20T10:18:28.495Z,1.22
2023-01-20T10:21:02.964Z,1.41
2023-01-20T10:23:42.675Z,1.46
2023-01-20T10:26:20.928Z,1.56
2023-01-20T10:28:55.970Z,1.46
2023-01-20T10:31:27.688Z,1.35
2023-01-20T10:33:58.923Z,1.51
2023-01-20T10:36:29.764Z,1.67
2023-01-20T10:39:04.367Z,1.72
2023-01-20T10:41:30.793Z,1.62
2023-01-20T10:43:59.374Z,1.64
2023-01-20T10:46:53.155Z,1.70
2023-01-20T10:49:40.226Z,1.55
2023-01-20T10:52:25.588Z,1.47
2023-01-20T10:55:18.858Z,1.52
2023-01-20T10:57:54.669Z,1.51
2023-01-20T11:00:28.727Z,1.69
2023-01-20T11:02:59.224Z,1.94
2023-01-20T11:05:38.135Z,2.36
2023-01-20T11:08:26.895Z,2.55
2023-01-20T11:10:56.611Z,2.42
2023-01-20T11:13:23.185Z,2.40
2023-01-20T11:15:53.714Z,2.41
2023-01-20T11:18:27.848Z,2.45
2023-01-20T11:21:07.654Z,2.36
2023-01-20T11:23:57.443Z,2.33
2023-01-20T11:26:31.628Z,2.28
2023-01-20T11:29:02.162Z,2.48
2023-01-20T11:31:45.086Z,2.60
2023-01-20T11:34:22.759Z,2.85
2023-01-20T11:37:22.122Z,3.13
2023-01-20T11:39:51.623Z,3.25
2023-01-20T11:42:26.360Z,3.25
2023-01-20T11:44:55.720Z,3.21
2023-01-20T11:47:24.081Z,3.10
2023-01-20T11:50:08.524Z,3.04
2023-01-20T11:52:37.145Z,3.18
2023-01-20T11:55:14.918Z,3.40
2023-01-20T11:57:57.912Z,3.54
2023-01-20T12:00:24.284Z,3.61
2023-01-20T12:03:01.045Z,3.62
2023-01-20T12:05:44.038Z,3.67
2023-01-20T12:08:18.913Z,3.74
2023-01-20T12:10:46.227Z,3.95
2023-01-20T12:14:18.063Z,3.94
2023-01-20T12:16:49.987Z,3.84
2023-01-20T12:19:20.378Z,3.91
2023-01-20T12:21:52.623Z,4.00
2023-01-20T12:24:38.743Z,4.02
2023-01-20T12:27:20.528Z,4.17
2023-01-20T12:29:51.704Z,4.21
2023-01-20T12:32:18.202Z,4.23
2023-01-20T12:34:44.969Z,4.30
2023-01-20T12:37:21.385Z,4.23
2023-01-20T12:40:11.404Z,4.21
2023-01-20T12:43:03.824Z,4.20
2023-01-20T12:46:07.176Z,4.23
2023-01-20T12:48:51.784Z,4.23
2023-01-20T12:52:23.988Z,4.34
2023-01-20T12:55:20.976Z,4.32
2023-01-20T12:57:51.898Z,4.36
2023-01-20T13:00:30.209Z,4.35
2023-01-20T13:03:18.275Z,4.29
2023-01-20T13:06:13.710Z,4.32
2023-01-20T13:09:25.335Z,4.37
2023-01-20T13:12:15.186Z,4.37
2023-01-20T13:15:08.537Z,4.38
2023-01-20T13:17:53.169Z,4.43
2023-01-20T13:20:28.145Z,4.31
2023-01-20T13:22:56.440Z,4.37
2023-01-20T13:25:24.022Z,4.38
2023-01-20T13:27:54.309Z,4.43
2023-01-20T13:30:47.859Z,4.47
2023-01-20T13:33:16.448Z,4.46
2023-01-20T13:35:46.973Z,4.53
2023-01-20T13:38:20.473Z,4.53
2023-01-20T13:40:50.566Z,4.56
2023-01-20T13:43:23.834Z,4.56
2023-01-20T13:46:05.788Z,4.56
2023-01-20T13:48:34.432Z,4.52
2023-01-20T13:51:16.078Z,4.58
2023-01-20T13:53:42.789Z,4.59
2023-01-20T13:56:35.398Z,4.67
2023-01-20T13:59:01.821Z,4.61
2023-01-20T14:01:28.379Z,4.61
2023-01-20T14:04:21.738Z,4.61
2023-01-20T14:06:51.213Z,4.69
2023-01-20T14:09:26.007Z,4.68
2023-01-20T14:11:55.226Z,4.66
2023-01-20T14:14:25.019Z,4.65
2023-01-20T14:16:51.513Z,4.65
2023-01-20T14:19:24.871Z,4.69
2023-01-20T14:21:54.607Z,4.69
2023-01-20T14:24:28.812Z,4.72
2023-01-20T14:27:17.075Z,4.71
2023-01-20T14:29:44.821Z,4.71
2023-01-20T14:32:29.118Z,4.70
2023-01-20T14:34:56.653Z,4.72
2023-01-20T14:37:29.012Z,4.68
2023-01-20T14:39:58.728Z,4.63
2023-01-20T14:42:27.457Z,4.66
2023-01-20T14:44:55.517Z,4.64
2023-01-20T14:47:24.661Z,4.69
2023-01-20T14:49:53.103Z,4.68
2023-01-20T14:52:27.493Z,4.67
2023-01-20T14:54:56.302Z,4.66
2023-01-20T14:57:41.222Z,4.65
2023-01-20T15:00:30.336Z,4.64
2023-01-20T15:03:12.006Z,4.60
2023-01-20T15:06:04.897Z,4.61
2023-01-20T15:08:34.375Z,4.58
2023-01-20T15:11:09.803Z,4.57
2023-01-20T15:13:37.948Z,4.58
2023-01-20T15:16:13.805Z,4.49
2023-01-20T15:18:40.442Z,4.43
2023-01-20T15:21:27.036Z,4.41
2023-01-20T15:23:53.779Z,4.42
2023-01-20T15:26:30.835Z,4.79
2023-01-20T15:28:59.057Z,4.72
2023-01-20T15:31:32.991Z,4.55
2023-01-20T15:34:09.017Z,4.44
2023-01-20T15:36:40.481Z,4.34
2023-01-20T15:39:18.570Z,4.32
2023-01-20T15:41:46.826Z,4.26
2023-01-20T15:44:18.892Z,4.25
2023-01-20T15:47:17.599Z,4.22
2023-01-20T15:50:18.673Z,4.19
2023-01-20T15:52:45.528Z,4.14
2023-01-20T15:55:17.284Z,4.11
2023-01-20T15:57:47.097Z,4.09
2023-01-20T16:00:18.860Z,4.05
2023-01-20T16:02:45.595Z,4.00
2023-01-20T16:05:15.751Z,3.88
2023-01-20T16:07:44.468Z,3.74
2023-01-20T16:10:17.251Z,3.68
2023-01-20T16:12:47.086Z,3.65
2023-01-20T16:15:16.547Z,3.64
2023-01-20T16:17:44.709Z,3.66
2023-01-20T16:20:19.493Z,3.60
2023-01-20T16:22:46.556Z,3.53
2023-01-20T16:25:13.713Z,3.38
2023-01-20T16:27:40.231Z,3.24
2023-01-20T16:30:07.711Z,3.12
2023-01-20T16:32:34.555Z,3.02
2023-01-20T16:35:01.018Z,3.03
2023-01-20T16:37:27.677Z,3.04
2023-01-20T16:39:56.074Z,2.97
2023-01-20T16:42:22.519Z,2.87
2023-01-20T16:44:49.532Z,2.80
2023-01-20T16:47:16.140Z,2.78
2023-01-20T16:49:43.780Z,2.84
2023-01-20T16:52:11.640Z,2.96
2023-01-20T16:54:38.055Z,3.00
2023-01-20T16:57:04.462Z,2.89
2023-01-20T16:59:30.974Z,2.82
2023-01-20T17:01:57.425Z,2.74
2023-01-20T17:04:23.857Z,2.71
2023-01-20T17:06:53.284Z,2.67
2023-01-20T17:09:19.706Z,2.56
2023-01-20T17:11:46.125Z,2.54
2023-01-20T17:14:12.599Z,2.57
2023-01-20T17:16:39.457Z,2.55
2023-01-20T17:19:06.080Z,2.56
2023-01-20T17:21:36.951Z,2.46
2023-01-20T17:24:05.150Z,2.39
2023-01-20T17:26:32.429Z,2.32
2023-01-20T17:29:04.310Z,2.40
2023-01-20T17:31:34.335Z,2.48
2023-01-20T17:34:00.824Z,2.59
2023-01-20T17:36:28.361Z,2.64
2023-01-20T17:38:54.912Z,2.59
2023-01-20T17:41:21.298Z,2.51
2023-01-20T17:43:47.832Z,2.45
2023-01-20T17:46:17.751Z,2.39
2023-01-20T17:48:45.102Z,2.34
2023-01-20T17:51:28.654Z,2.33
2023-01-20T17:53:56.849Z,2.41
2023-01-20T17:56:23.497Z,2.35
2023-01-20T17:58:50.042Z,2.18
2023-01-20T18:01:19.222Z,1.97
2023-01-20T18:03:47.358Z,1.90
2023-01-20T18:06:15.879Z,1.91
2023-01-20T18:08:44.841Z,1.98
2023-01-20T18:11:19.354Z,1.98
2023-01-20T18:13:46.703Z,1.93
2023-01-20T18:16:15.255Z,1.92
2023-01-20T18:18:43.808Z,1.90
2023-01-20T18:21:19.325Z,1.95
2023-01-20T18:23:47.342Z,1.98
2023-01-20T18:26:15.872Z,1.95
2023-01-20T18:28:43.369Z,1.94
2023-01-20T18:31:15.542Z,1.94
2023-01-20T18:33:44.609Z,1.91
2023-01-20T18:36:14.998Z,1.76
2023-01-20T18:38:43.424Z,1.61
2023-01-20T18:41:11.011Z,1.58
2023-01-20T18:43:38.024Z,1.65
2023-01-20T18:46:05.748Z,1.66
2023-01-20T18:48:32.693Z,1.62
2023-01-20T18:51:00.416Z,1.53
2023-01-20T18:53:30.693Z,1.58
2023-01-20T18:56:05.090Z,1.59
2023-01-20T18:58:32.655Z,1.59
2023-01-20T19:01:06.936Z,1.60
2023-01-20T19:03:34.636Z,1.59
2023-01-20T19:06:12.790Z,1.64
2023-01-20T19:08:40.205Z,1.66
2023-01-20T19:11:10.147Z,1.65
2023-01-20T19:13:36.599Z,1.65
2023-01-20T19:16:03.076Z,1.61
2023-01-20T19:18:29.678Z,1.49
2023-01-20T19:20:56.159Z,1.51
2023-01-20T19:23:22.629Z,1.52
2023-01-20T19:25:59.771Z,1.48
2023-01-20T19:28:26.149Z,1.51
2023-01-20T19:30:52.669Z,1.47
2023-01-20T19:33:19.142Z,1.46
2023-01-20T19:35:45.560Z,1.54
2023-01-20T19:38:11.972Z,1.51
2023-01-20T19:40:39.654Z,1.48
2023-01-20T19:43:06.118Z,1.49
2023-01-20T19:45:45.482Z,1.52
2023-01-20T19:48:12.351Z,1.37
2023-01-20T19:50:38.990Z,1.30
2023-01-20T19:53:05.411Z,1.30
2023-01-20T19:55:31.836Z,1.27
2023-01-20T19:57:58.302Z,1.27
2023-01-20T20:00:24.772Z,1.29
2023-01-20T20:02:53.959Z,1.25
2023-01-20T20:05:20.373Z,1.28
2023-01-20T20:07:46.902Z,1.25
2023-01-20T20:10:13.330Z,1.15
2023-01-20T20:12:39.790Z,1.16
2023-01-20T20:15:06.690Z,1.10
2023-01-20T20:17:33.184Z,1.03
2023-01-20T20:19:59.576Z,0.93
2023-01-20T20:22:26.062Z,0.99
2023-01-20T20:24:52.450Z,1.03
2023-01-20T20:27:18.836Z,1.01
2023-01-20T20:29:45.386Z,0.97
2023-01-20T20:32:12.180Z,0.93
2023-01-20T20:34:38.608Z,0.90
2023-01-20T20:37:05.074Z,0.91
2023-01-20T20:39:31.523Z,0.88
2023-01-20T20:41:57.964Z,0.93
2023-01-20T20:44:24.505Z,0.97
2023-01-20T20:46:50.988Z,0.91
2023-01-20T20:49:17.928Z,0.89
2023-01-20T20:51:44.529Z,0.85
2023-01-20T20:54:13.931Z,0.78
2023-01-20T20:56:40.345Z,0.76
2023-01-20T20:59:06.773Z,0.73
2023-01-20T21:01:34.485Z,0.74
2023-01-20T21:04:02.420Z,0.67
2023-01-20T21:06:30.022Z,0.70
2023-01-20T21:08:56.561Z,0.72
2023-01-20T21:11:24.060Z,0.69
2023-01-20T21:13:50.582Z,0.67
2023-01-20T21:16:20.662Z,0.60
2023-01-20T21:18:47.943Z,0.63
2023-01-20T21:21:17.040Z,0.62
2023-01-20T21:23:50.810Z,0.60
2023-01-20T21:26:17.466Z,0.57
2023-01-20T21:28:44.459Z,0.55
2023-01-20T21:31:14.288Z,0.50
2023-01-20T21:33:42.359Z,0.41
2023-01-20T21:36:12.200Z,0.42
2023-01-20T21:38:46.497Z,0.50
2023-01-20T21:41:14.713Z,0.53
2023-01-20T21:44:02.385Z,0.51
2023-01-20T21:46:35.913Z,0.53
2023-01-20T21:49:23.295Z,0.55
2023-01-20T21:52:08.785Z,0.58
2023-01-20T21:54:35.309Z,0.51
2023-01-20T21:57:01.996Z,0.54
2023-01-20T21:59:28.464Z,0.59
2023-01-20T22:01:54.913Z,0.60
2023-01-20T22:04:21.437Z,0.58
2023-01-20T22:06:47.944Z,0.55
2023-01-20T22:09:14.553Z,0.54
2023-01-20T22:11:40.988Z,0.54
2023-01-20T22:14:09.029Z,0.52
2023-01-20T22:16:35.526Z,0.42
2023-01-20T22:19:02.038Z,0.46
2023-01-20T22:21:29.523Z,0.51
2023-01-20T22:23:55.948Z,0.47
2023-01-20T22:26:22.385Z,0.32
2023-01-20T22:28:48.872Z,0.36
2023-01-20T22:31:23.993Z,0.31
2023-01-20T22:33:54.265Z,0.38
2023-01-20T22:36:21.771Z,0.39
2023-01-20T22:38:49.435Z,0.37
2023-01-20T22:41:16.453Z,0.44
2023-01-20T22:43:47.729Z,0.40
2023-01-20T22:46:16.444Z,0.30
2023-01-20T22:48:42.943Z,0.36
2023-01-20T22:51:12.317Z,0.41
2023-01-20T22:53:39.338Z,0.45
2023-01-20T22:56:13.309Z,0.31
2023-01-20T22:58:40.870Z,0.29
2023-01-20T23:01:14.313Z,0.27
2023-01-20T23:03:41.411Z,0.22
2023-01-20T23:06:08.540Z,0.15
2023-01-20T23:08:35.326Z,0.12
2023-01-20T23:11:07.206Z,0.07
2023-01-20T23:13:35.201Z,-0.03
2023-01-20T23:16:04.534Z,-0.15
2023-01-20T23:18:31.747Z,-0.12
2023-01-20T23:20:58.192Z,-0.06
2023-01-20T23:23:26.100Z,-0.14
2023-01-20T23:26:01.193Z,-0.19
2023-01-20T23:28:27.981Z,-0.18
2023-01-20T23:31:05.486Z,-0.09
2023-01-20T23:33:32.806Z,-0.07
2023-01-20T23:36:10.502Z,-0.11
2023-01-20T23:38:37.031Z,-0.12
2023-01-20T23:41:04.101Z,-0.09
2023-01-20T23:43:31.468Z,-0.11
2023-01-20T23:46:02.961Z,-0.14
2023-01-20T23:48:30.103Z,-0.14
2023-01-20T23:50:59.709Z,-0.06
2023-01-20T23:53:27.637Z,-0.03
2023-01-20T23:56:03.134Z,-0.04
2023-01-20T23:58:30.180Z,0.01
